Time;durP1;ratioP1;P1;durP2;ratioP2;P2;SDS_P1;SDS_P2;PMS_P1;PMS_P2;Temp;Humidity;BMP_temperature;BMP_pressure;BME280_temperature;BME280_humidity;BME280_pressure;Samples;Min_cycle;Max_cycle;Signal;HPM_P1;HPM_P2
2023/07/14 00:01:54;;;;;;;;;3.33;2.67;;;;;15.54;100.00;98505.13;4949600;28;101837;-78
2023/07/14 00:04:31;;;;;;;;;5.00;5.00;;;;;15.41;100.00;98488.97;4952952;28;101762;-79
2023/07/14 00:06:59;;;;;;;;;3.67;3.00;;;;;15.49;100.00;98510.47;4947580;28;101843;-78
2023/07/14 00:09:29;;;;;;;;;3.33;3.33;;;;;15.47;100.00;98507.97;4948900;28;104844;-80
2023/07/14 00:11:57;;;;;;;;;3.00;2.00;;;;;15.45;100.00;98518.25;4948261;28;101523;-79
2023/07/14 00:14:24;;;;;;;;;2.00;2.00;;;;;15.30;100.00;98496.09;4954433;28;101625;-78
2023/07/14 00:16:52;;;;;;;;;3.33;3.00;;;;;15.47;100.00;98515.28;4931514;28;101651;-78
2023/07/14 00:19:20;;;;;;;;;3.00;3.00;;;;;15.46;100.00;98521.81;4946806;28;107838;-77
2023/07/14 00:21:49;;;;;;;;;4.75;4.25;;;;;15.40;100.00;98517.31;4948634;28;101941;-79
2023/07/14 00:24:19;;;;;;;;;4.00;3.00;;;;;15.42;100.00;98521.44;4948764;28;101552;-78
2023/07/14 00:26:55;;;;;;;;;4.75;4.25;;;;;15.34;100.00;98518.22;4951690;28;101734;-78
2023/07/14 00:29:39;;;;;;;;;3.00;3.00;;;;;15.28;100.00;98525.44;4933773;28;107995;-78
2023/07/14 00:32:32;;;;;;;;;2.00;2.00;;;;;15.16;100.00;98521.88;4946977;28;101752;-79
2023/07/14 00:35:00;;;;;;;;;2.33;2.00;;;;;15.16;100.00;98538.19;4943105;28;106398;-78
2023/07/14 00:37:27;;;;;;;;;2.00;2.00;;;;;15.12;100.00;98532.41;4934676;28;102620;-79
2023/07/14 00:39:54;;;;;;;;;2.00;2.00;;;;;15.11;100.00;98536.19;4951552;28;103325;-78
2023/07/14 00:42:21;;;;;;;;;2.67;2.67;;;;;15.08;100.00;98542.06;4948629;28;101532;-78
2023/07/14 00:44:53;;;;;;;;;2.75;2.50;;;;;14.90;100.00;98517.63;4943240;28;101848;-79
2023/07/14 00:47:28;;;;;;;;;3.25;3.25;;;;;14.93;100.00;98532.66;4943912;28;102055;-78
2023/07/14 00:49:57;;;;;;;;;5.25;5.00;;;;;14.93;100.00;98538.09;4922909;28;107981;-78
2023/07/14 00:52:31;;;;;;;;;3.25;3.25;;;;;14.87;100.00;98526.25;4944478;28;101554;-79
2023/07/14 00:54:58;;;;;;;;;4.00;4.00;;;;;14.92;100.00;98528.28;4942073;28;103024;-79
2023/07/14 00:57:28;;;;;;;;;3.00;3.00;;;;;14.83;100.00;98506.00;4943391;28;102131;-79
2023/07/14 00:59:59;;;;;;;;;4.00;3.25;;;;;14.88;100.00;98518.91;4939433;28;108979;-78
2023/07/14 01:02:28;;;;;;;;;4.00;3.25;;;;;14.81;100.00;98534.50;4936814;28;102145;-78
2023/07/14 01:05:07;;;;;;;;;3.00;3.00;;;;;14.80;100.00;98544.56;4931861;28;101739;-79
2023/07/14 01:07:49;;;;;;;;;4.75;4.00;;;;;14.87;100.00;98548.03;4946721;28;103211;-78
2023/07/14 01:10:39;;;;;;;;;3.25;3.25;;;;;14.94;100.00;98540.63;4944261;28;106807;-79
2023/07/14 01:13:30;;;;;;;;;2.75;2.00;;;;;14.83;100.00;98521.50;4944492;28;102931;-79
2023/07/14 01:16:21;;;;;;;;;3.25;3.25;;;;;14.93;100.00;98551.72;4943218;28;101593;-77
2023/07/14 01:19:11;;;;;;;;;4.00;4.00;;;;;14.85;100.00;98533.81;4945318;28;101704;-79
2023/07/14 01:21:50;;;;;;;;;5.00;4.75;;;;;14.84;100.00;98543.03;4941224;28;106604;-78
2023/07/14 01:24:29;;;;;;;;;5.75;5.75;;;;;14.82;100.00;98547.88;4947477;28;102760;-79
2023/07/14 01:27:07;;;;;;;;;5.00;4.75;;;;;14.81;100.00;98548.97;4930195;28;102061;-79
2023/07/14 01:29:34;;;;;;;;;3.00;3.00;;;;;14.82;100.00;98558.75;4947677;28;101611;-78
2023/07/14 01:32:17;;;;;;;;;4.00;4.00;;;;;14.79;100.00;98553.78;4945662;28;103140;-77
2023/07/14 01:34:56;;;;;;;;;3.00;3.00;;;;;14.67;100.00;98534.69;4947268;28;101948;-79
2023/07/14 01:37:23;;;;;;;;;2.75;2.25;;;;;14.77;100.00;98564.06;4930626;28;101579;-78
2023/07/14 01:39:52;;;;;;;;;5.00;3.50;;;;;14.76;100.00;98570.59;4945446;28;101615;-79
2023/07/14 01:42:20;;;;;;;;;3.00;2.00;;;;;14.68;100.00;98557.25;4946332;28;103465;-79
2023/07/14 01:44:48;;;;;;;;;5.25;5.25;;;;;14.67;100.00;98559.19;4929182;28;104256;-79
2023/07/14 01:47:16;;;;;;;;;5.50;5.50;;;;;14.67;100.00;98555.63;4945686;28;101683;-80
2023/07/14 01:50:30;;;;;;;;;5.25;5.25;;;;;14.66;100.00;98557.50;4945509;28;101669;-79
2023/07/14 01:53:15;;;;;;;;;5.25;5.00;;;;;14.63;100.00;98559.88;4926754;28;107643;-79
2023/07/14 01:56:04;;;;;;;;;2.00;2.00;;;;;14.57;100.00;98558.03;4949622;28;102028;-80
2023/07/14 01:58:49;;;;;;;;;6.00;5.75;;;;;14.60;100.00;98572.03;4935084;28;101541;-80
2023/07/14 02:01:19;;;;;;;;;6.50;5.00;;;;;14.56;100.00;98573.53;4944961;28;102159;-79
2023/07/14 02:03:50;;;;;;;;;4.25;4.25;;;;;14.53;100.00;98579.44;4934701;28;104278;-78
2023/07/14 02:06:18;;;;;;;;;5.00;5.00;;;;;14.35;100.00;98556.81;4945268;28;102110;-78
2023/07/14 02:08:45;;;;;;;;;5.00;5.00;;;;;14.44;100.00;98569.09;4950076;28;101873;-79
2023/07/14 02:11:20;;;;;;;;;3.00;3.00;;;;;14.34;100.00;98561.41;4948158;28;101875;-80
2023/07/14 02:13:54;;;;;;;;;3.00;3.00;;;;;14.45;100.00;98578.91;4948732;28;103416;-78
2023/07/14 02:16:22;;;;;;;;;1.75;1.50;;;;;14.45;100.00;98582.47;4949986;28;102133;-79
2023/07/14 02:18:50;;;;;;;;;2.50;2.50;;;;;14.49;100.00;98591.00;4949045;28;101706;-80
2023/07/14 02:21:28;;;;;;;;;3.75;3.75;;;;;14.49;100.00;98578.22;4933836;28;101930;-79
2023/07/14 02:23:59;;;;;;;;;5.00;4.00;;;;;14.54;100.00;98592.00;4948159;28;103518;-78
2023/07/14 02:26:32;;;;;;;;;3.00;3.00;;;;;14.45;100.00;98579.75;4946189;28;101589;-78
2023/07/14 02:28:59;;;;;;;;;4.00;3.50;;;;;14.48;100.00;98595.63;4948734;28;101479;-79
2023/07/14 02:31:40;;;;;;;;;3.00;3.00;;;;;14.42;100.00;98590.22;4951977;28;102068;-80
2023/07/14 02:34:11;;;;;;;;;1.75;1.50;;;;;14.43;100.00;98592.72;4950176;28;107337;-79
2023/07/14 02:36:53;;;;;;;;;0.00;0.00;;;;;14.42;100.00;98591.06;4926240;28;103403;-79
2023/07/14 02:39:20;;;;;;;;;3.50;3.25;;;;;14.29;100.00;98580.28;4937157;28;101892;-78
2023/07/14 02:41:53;;;;;;;;;5.00;5.00;;;;;14.41;100.00;98594.03;4946689;28;101962;-78
2023/07/14 02:44:26;;;;;;;;;5.50;5.50;;;;;14.39;100.00;98591.53;4944582;28;107803;-79
2023/07/14 02:47:00;;;;;;;;;3.50;3.50;;;;;14.43;100.00;98594.63;4950080;28;102311;-78
2023/07/14 02:49:27;;;;;;;;;7.00;6.25;;;;;14.48;100.00;98598.34;4948171;28;101556;-78
2023/07/14 02:51:54;;;;;;;;;5.00;4.75;;;;;14.57;100.00;98598.88;4949054;28;101541;-78
2023/07/14 02:54:23;;;;;;;;;6.00;6.00;;;;;14.60;100.00;98604.69;4948863;28;103478;-78
2023/07/14 02:56:51;;;;;;;;;6.75;5.50;;;;;14.54;100.00;98610.22;4948064;28;101945;-79
2023/07/14 02:59:19;;;;;;;;;6.00;6.00;;;;;14.60;100.00;98614.72;4950600;28;102267;-79
2023/07/14 03:01:46;;;;;;;;;6.00;6.00;;;;;14.63;100.00;98615.09;4951069;28;101620;-79
2023/07/14 03:04:13;;;;;;;;;4.75;4.75;;;;;14.66;100.00;98609.22;4946720;28;110825;-78
2023/07/14 03:06:40;;;;;;;;;6.00;6.00;;;;;14.67;100.00;98615.50;4950125;28;101923;-80
2023/07/14 03:09:09;;;;;;;;;7.25;6.00;;;;;14.72;100.00;98618.38;4949575;28;101604;-79
2023/07/14 03:11:36;;;;;;;;;4.25;4.00;;;;;14.72;100.00;98613.72;4933943;28;101544;-79
2023/07/14 03:17:51;;;;;;;;;5.00;5.00;;;;;14.79;100.00;98612.84;4950218;28;101520;-78
2023/07/14 03:20:18;;;;;;;;;4.00;4.00;;;;;14.92;100.00;98639.91;4949891;28;101575;-77
2023/07/14 03:22:45;;;;;;;;;3.25;3.25;;;;;14.95;100.00;98623.94;4953223;28;101585;-79
2023/07/14 03:25:12;;;;;;;;;4.00;4.00;;;;;15.01;100.00;98639.38;4947193;28;103319;-79
2023/07/14 03:27:40;;;;;;;;;6.25;6.25;;;;;15.04;100.00;98638.09;4934091;28;101616;-79
2023/07/14 03:30:07;;;;;;;;;8.25;8.00;;;;;14.98;100.00;98618.06;4948527;28;101508;-79
2023/07/14 03:32:34;;;;;;;;;6.25;6.25;;;;;15.13;100.00;98640.25;4931079;28;102447;-80
2023/07/14 03:35:02;;;;;;;;;4.25;4.00;;;;;15.24;100.00;98646.81;4948063;28;103373;-79
2023/07/14 03:37:29;;;;;;;;;6.75;6.75;;;;;15.18;100.00;98620.50;4943012;28;101629;-79
2023/07/14 03:39:56;;;;;;;;;6.00;6.00;;;;;15.34;100.00;98638.09;4945017;28;102844;-78
2023/07/14 03:42:23;;;;;;;;;7.00;7.00;;;;;15.38;100.00;98633.84;4947255;28;101584;-79
2023/07/14 03:44:50;;;;;;;;;3.00;3.00;;;;;15.39;100.00;98635.53;4947970;28;104689;-78
2023/07/14 03:47:17;;;;;;;;;8.00;7.00;;;;;15.22;100.00;98590.94;4947215;28;101451;-80
2023/07/14 03:49:44;;;;;;;;;8.00;8.00;;;;;15.42;100.00;98614.09;4950819;28;102082;-80
2023/07/14 03:52:13;;;;;;;;;9.00;7.75;;;;;15.63;100.00;98637.28;4947042;28;101728;-81
2023/07/14 03:54:40;;;;;;;;;4.00;4.00;;;;;15.68;100.00;98629.25;4945966;28;102345;-80
2023/07/14 03:57:07;;;;;;;;;6.25;6.25;;;;;15.80;100.00;98638.31;4947897;28;101450;-80
2023/07/14 03:59:34;;;;;;;;;5.00;5.00;;;;;15.89;100.00;98641.53;4945672;28;102100;-81
2023/07/14 04:02:01;;;;;;;;;7.50;6.75;;;;;15.99;100.00;98647.22;4945424;28;101813;-80
2023/07/14 04:04:29;;;;;;;;;6.50;6.50;;;;;16.04;100.00;98634.53;4944831;28;103426;-78
2023/07/14 04:06:57;;;;;;;;;8.00;8.00;;;;;16.11;100.00;98639.06;4942753;28;102057;-80
2023/07/14 04:09:24;;;;;;;;;4.75;4.75;;;;;16.21;100.00;98651.03;4950201;28;101622;-79
2023/07/14 04:11:51;;;;;;;;;9.00;8.00;;;;;16.31;100.00;98653.19;4952772;28;101979;-80
2023/07/14 04:14:19;;;;;;;;;5.00;5.00;;;;;16.38;100.00;98660.19;4949336;28;103363;-80
2023/07/14 04:16:46;;;;;;;;;6.00;6.00;;;;;16.45;100.00;98651.88;4952741;28;101793;-79
2023/07/14 04:19:13;;;;;;;;;7.25;6.50;;;;;16.49;100.00;98658.53;4947230;28;101497;-78
2023/07/14 04:21:40;;;;;;;;;4.33;4.33;;;;;16.58;100.00;98667.22;4950661;28;101660;-79
2023/07/14 04:24:07;;;;;;;;;5.00;5.00;;;;;16.60;100.00;98671.38;4946033;28;103588;-79
2023/07/14 04:26:34;;;;;;;;;1.33;1.33;;;;;16.61;100.00;98662.13;4952461;28;101732;-80
2023/07/14 04:29:01;;;;;;;;;6.00;5.00;;;;;16.44;100.00;98637.41;4951275;28;101440;-78
2023/07/14 04:31:28;;;;;;;;;6.67;6.00;;;;;16.60;100.00;98668.66;4952533;28;103324;-79
2023/07/14 04:33:55;;;;;;;;;7.67;7.67;;;;;16.59;100.00;98671.63;4948540;28;103533;-79
2023/07/14 04:36:23;;;;;;;;;4.00;3.67;;;;;16.57;100.00;98671.00;4951237;28;101834;-79
2023/07/14 04:39:03;;;;;;;;;8.00;6.00;;;;;16.49;100.00;98670.28;4952118;28;101940;-80
2023/07/14 04:41:32;;;;;;;;;5.67;5.67;;;;;16.50;100.00;98663.75;4952510;28;101761;-79
2023/07/14 04:44:08;;;;;;;;;9.00;9.00;;;;;16.37;100.00;98644.88;4951977;28;103744;-79
2023/07/14 04:46:36;;;;;;;;;9.00;8.33;;;;;16.57;100.00;98671.81;4936654;28;101444;-79
2023/07/14 04:49:04;;;;;;;;;7.00;6.00;;;;;16.59;100.00;98674.34;4952515;28;103164;-78
2023/07/14 04:51:33;;;;;;;;;8.67;8.33;;;;;16.64;100.00;98672.56;4953805;28;101895;-79
2023/07/14 04:54:01;;;;;;;;;7.75;7.75;;;;;16.77;100.00;98687.88;4952479;28;103447;-80
2023/07/14 04:56:28;;;;;;;;;8.00;7.00;;;;;16.73;100.00;98667.56;4952606;28;101872;-80
2023/07/14 04:58:56;;;;;;;;;5.67;5.67;;;;;17.03;100.00;98686.53;4952505;28;101625;-80
2023/07/14 05:01:23;;;;;;;;;8.00;8.00;;;;;17.22;100.00;98685.31;4952767;28;101592;-80
2023/07/14 05:03:50;;;;;;;;;6.67;6.67;;;;;17.40;100.00;98676.94;4950548;28;103652;-80
2023/07/14 05:06:17;;;;;;;;;7.00;6.67;;;;;17.67;100.00;98683.50;4935957;28;101917;-80
2023/07/14 05:08:44;;;;;;;;;7.67;7.00;;;;;17.80;100.00;98665.97;4937917;28;101910;-79
2023/07/14 05:11:15;;;;;;;;;9.33;8.33;;;;;18.15;100.00;98684.91;4947213;28;101697;-80
2023/07/14 05:13:43;;;;;;;;;8.00;7.00;;;;;18.36;100.00;98695.13;4946112;28;103388;-80
2023/07/14 05:16:10;;;;;;;;;24.00;22.00;;;;;18.66;100.00;98686.59;4944675;28;102374;-79
2023/07/14 05:18:38;;;;;;;;;11.33;8.67;;;;;18.82;100.00;98698.63;4951448;28;101889;-79
2023/07/14 05:21:05;;;;;;;;;7.00;7.00;;;;;18.89;100.00;98689.13;4947782;28;102267;-79
2023/07/14 05:23:33;;;;;;;;;8.33;7.67;;;;;18.91;100.00;98699.84;4928657;28;103519;-80
2023/07/14 05:26:00;;;;;;;;;15.00;13.67;;;;;19.13;100.00;98692.50;4949880;28;102116;-80
2023/07/14 05:28:27;;;;;;;;;15.33;15.33;;;;;19.24;100.00;98694.25;4934105;28;102100;-79
2023/07/14 05:30:55;;;;;;;;;9.00;9.00;;;;;19.38;100.00;98678.25;4953633;28;102044;-78
2023/07/14 05:33:34;;;;;;;;;10.00;8.67;;;;;19.62;100.00;98692.56;4950541;28;108136;-79
2023/07/14 05:36:01;;;;;;;;;13.67;13.00;;;;;19.81;99.54;98691.94;4933899;28;101859;-80
2023/07/14 05:38:29;;;;;;;;;9.67;9.33;;;;;20.02;98.37;98696.56;4949775;28;101506;-79
2023/07/14 05:40:57;;;;;;;;;12.00;10.00;;;;;20.13;97.74;98686.50;4952157;28;102743;-82
2023/07/14 05:43:27;;;;;;;;;9.00;8.00;;;;;20.28;96.42;98694.88;4948291;28;103398;-78
2023/07/14 05:45:54;;;;;;;;;11.33;11.00;;;;;20.42;96.52;98693.38;4932313;28;101798;-79
2023/07/14 05:48:23;;;;;;;;;11.33;11.33;;;;;20.53;95.95;98690.72;4949001;28;102020;-78
2023/07/14 05:50:50;;;;;;;;;6.67;6.67;;;;;20.60;95.03;98683.06;4931806;28;102318;-79
2023/07/14 05:53:17;;;;;;;;;10.67;9.67;;;;;20.82;94.68;98695.59;4947773;28;103351;-80
2023/07/14 05:55:45;;;;;;;;;9.67;9.67;;;;;20.85;95.65;98691.47;4950783;28;101818;-79
2023/07/14 05:58:13;;;;;;;;;10.67;9.67;;;;;20.96;93.35;98695.97;4945436;28;102097;-81
2023/07/14 06:00:40;;;;;;;;;19.67;18.00;;;;;21.06;94.36;98685.03;4948941;28;102063;-79
2023/07/14 06:03:17;;;;;;;;;12.00;10.67;;;;;21.16;91.92;98700.78;4945443;28;103445;-80
2023/07/14 06:05:46;;;;;;;;;8.00;7.00;;;;;21.34;90.76;98698.38;4946392;28;102827;-79
2023/07/14 06:08:14;;;;;;;;;13.67;13.33;;;;;21.51;90.69;98697.38;4948822;28;101620;-80
2023/07/14 06:10:41;;;;;;;;;11.67;10.33;;;;;21.49;90.08;98696.81;4950153;28;102057;-80
2023/07/14 06:13:08;;;;;;;;;9.00;8.00;;;;;21.60;89.76;98690.25;4948368;28;103583;-80
2023/07/14 06:15:36;;;;;;;;;9.33;8.00;;;;;21.70;90.46;98701.31;4948327;28;101822;-79
2023/07/14 06:18:04;;;;;;;;;14.67;13.67;;;;;21.92;87.77;98704.66;4947369;28;101849;-80
2023/07/14 06:20:31;;;;;;;;;9.67;9.00;;;;;22.10;85.54;98703.34;4947259;28;101869;-80
2023/07/14 06:22:58;;;;;;;;;9.00;9.00;;;;;22.14;86.56;98686.00;4947228;28;103409;-81
2023/07/14 06:25:25;;;;;;;;;7.00;7.00;;;;;22.04;83.90;98699.75;4947731;28;101978;-81
2023/07/14 06:27:52;;;;;;;;;9.67;8.00;;;;;21.50;86.76;98703.97;4946178;28;101559;-81
2023/07/14 06:30:24;;;;;;;;;5.67;5.67;;;;;21.45;85.28;98684.69;4949456;28;102009;-82
2023/07/14 06:32:51;;;;;;;;;7.33;7.00;;;;;21.46;86.11;98689.09;4946709;28;103466;-81
2023/07/14 06:35:19;;;;;;;;;6.33;6.00;;;;;21.38;85.16;98686.88;4946700;28;102007;-81
2023/07/14 06:37:46;;;;;;;;;5.67;5.00;;;;;21.44;87.03;98683.84;4922551;28;101697;-81
2023/07/14 06:40:13;;;;;;;;;4.67;4.67;;;;;21.53;89.39;98687.75;4943575;28;101738;-80
2023/07/14 06:42:40;;;;;;;;;9.67;9.67;;;;;21.09;86.90;98684.50;4947616;28;102827;-81
2023/07/14 06:45:08;;;;;;;;;10.33;10.00;;;;;21.02;87.08;98683.91;4942694;28;101448;-80
2023/07/14 06:47:35;;;;;;;;;7.00;7.00;;;;;21.41;84.07;98698.16;4954038;28;102419;-80
2023/07/14 06:50:03;;;;;;;;;8.67;6.00;;;;;21.62;81.78;98693.53;4946798;28;101907;-81
2023/07/14 06:52:31;;;;;;;;;6.33;6.33;;;;;21.53;79.49;98695.16;4946925;28;103197;-80
2023/07/14 06:54:58;;;;;;;;;5.00;4.00;;;;;21.88;80.64;98684.28;4940645;28;103144;-81
2023/07/14 06:57:25;;;;;;;;;3.67;3.67;;;;;22.03;78.02;98659.53;4943040;28;101586;-82
2023/07/14 06:59:52;;;;;;;;;4.67;4.67;;;;;22.42;75.54;98686.56;4946848;28;101671;-81
2023/07/14 07:02:20;;;;;;;;;10.67;10.67;;;;;21.89;78.54;98694.19;4945134;28;103336;-81
2023/07/14 07:04:47;;;;;;;;;14.00;11.67;;;;;22.16;81.87;98694.81;4947083;28;102134;-82
2023/07/14 07:07:14;;;;;;;;;10.00;9.00;;;;;21.86;77.33;98678.22;4926361;28;102444;-83
2023/07/14 07:09:41;;;;;;;;;12.00;11.00;;;;;21.83;80.52;98692.53;4946784;28;101731;-83
2023/07/14 07:12:09;;;;;;;;;10.00;8.33;;;;;21.98;80.07;98689.81;4927795;28;103364;-82
2023/07/14 07:14:36;;;;;;;;;9.67;9.00;;;;;22.34;78.61;98689.84;4948669;28;102688;-81
2023/07/14 07:17:04;;;;;;;;;8.67;8.33;;;;;22.41;74.52;98674.72;4948234;28;102269;-83
2023/07/14 07:19:33;;;;;;;;;6.00;6.00;;;;;22.79;73.45;98698.13;4948374;28;101880;-84
2023/07/14 07:22:00;;;;;;;;;6.67;6.67;;;;;22.65;70.92;98702.53;4947513;28;103288;-84
2023/07/14 07:24:27;;;;;;;;;5.67;5.67;;;;;22.66;72.41;98698.69;4947750;28;101510;-83
2023/07/14 07:26:55;;;;;;;;;4.67;4.67;;;;;23.05;74.75;98701.69;4944352;28;106367;-84
2023/07/14 07:29:25;;;;;;;;;6.00;5.00;;;;;23.02;72.91;98692.03;4946757;28;101603;-84
2023/07/14 07:31:53;;;;;;;;;11.33;11.00;;;;;22.53;72.63;98696.47;4945796;28;103528;-81
2023/07/14 07:34:20;;;;;;;;;9.00;9.00;;;;;22.74;73.58;98678.84;4929850;28;101682;-82
2023/07/14 07:36:47;;;;;;;;;6.00;6.00;;;;;23.18;69.23;98709.38;4925520;28;102644;-81
2023/07/14 07:39:14;;;;;;;;;4.00;4.00;;;;;23.28;71.95;98714.06;4948501;28;101922;-81
2023/07/14 07:41:41;;;;;;;;;10.33;8.33;;;;;23.20;67.05;98714.59;4944732;28;103646;-82
2023/07/14 07:44:11;;;;;;;;;5.33;5.33;;;;;23.30;66.21;98720.94;4948992;28;101736;-83
2023/07/14 07:46:39;;;;;;;;;5.00;5.00;;;;;23.33;66.64;98714.00;4951292;28;101704;-82
2023/07/14 07:49:06;;;;;;;;;4.00;4.00;;;;;23.57;66.73;98715.06;4952943;28;101635;-82
2023/07/14 07:51:33;;;;;;;;;4.00;3.00;;;;;23.69;65.90;98723.00;4951272;28;107965;-82
2023/07/14 07:54:00;;;;;;;;;4.00;3.33;;;;;23.71;64.54;98718.03;4951453;28;101829;-82
2023/07/14 07:56:27;;;;;;;;;3.00;3.00;;;;;23.70;64.86;98714.47;4950603;28;102146;-80
2023/07/14 07:58:54;;;;;;;;;4.00;3.67;;;;;23.76;63.64;98707.81;4947965;28;101656;-82
2023/07/14 08:01:24;;;;;;;;;5.00;4.00;;;;;23.84;63.76;98720.19;4949142;28;103580;-82
2023/07/14 08:03:52;;;;;;;;;5.67;5.67;;;;;23.41;66.99;98716.22;4946662;28;101673;-82
2023/07/14 08:06:21;;;;;;;;;5.67;5.00;;;;;23.56;67.13;98716.16;4940660;28;101981;-83
2023/07/14 08:08:48;;;;;;;;;5.00;5.00;;;;;23.63;65.85;98713.13;4944849;28;102067;-81
2023/07/14 08:11:15;;;;;;;;;8.00;8.00;;;;;23.28;65.23;98717.63;4947043;28;103301;-83
2023/07/14 08:13:42;;;;;;;;;10.00;9.33;;;;;23.26;67.44;98716.25;4945650;28;101994;-83
2023/07/14 08:16:10;;;;;;;;;9.00;8.33;;;;;23.46;68.11;98719.78;4949064;28;101768;-84
2023/07/14 08:18:39;;;;;;;;;6.67;6.67;;;;;23.54;68.44;98699.09;4947359;28;101822;-83
2023/07/14 08:21:06;;;;;;;;;10.33;10.33;;;;;23.22;65.35;98720.69;4947899;28;103671;-82
2023/07/14 08:23:35;;;;;;;;;11.00;10.00;;;;;22.92;65.79;98703.06;4945683;28;101541;-84
2023/07/14 08:26:03;;;;;;;;;11.33;10.33;;;;;22.89;67.02;98700.88;4948860;28;102478;-84
2023/07/14 08:28:30;;;;;;;;;8.67;7.33;;;;;23.18;67.99;98705.81;4946144;28;102844;-84
2023/07/14 08:31:01;;;;;;;;;6.33;6.00;;;;;23.63;65.97;98718.63;4944282;28;103384;-82
2023/07/14 08:33:29;;;;;;;;;7.33;6.67;;;;;23.52;65.13;98679.19;4943964;28;102092;-84
2023/07/14 08:36:03;;;;;;;;;6.00;5.67;;;;;23.80;64.85;98692.31;4951071;28;101800;-81
2023/07/14 08:38:32;;;;;;;;;6.00;5.67;;;;;23.84;59.52;98712.72;4951398;28;101660;-84
2023/07/14 08:41:11;;;;;;;;;10.00;8.00;;;;;23.54;64.51;98710.13;4950120;28;103477;-80
2023/07/14 08:43:53;;;;;;;;;7.00;5.67;;;;;23.86;60.06;98696.72;4950205;28;101663;-81
2023/07/14 08:46:30;;;;;;;;;6.00;5.00;;;;;24.15;60.29;98705.09;4947156;28;101559;-81
2023/07/14 08:49:37;;;;;;;;;8.33;8.00;;;;;23.62;58.19;98701.25;4926301;28;102656;-84
2023/07/14 08:52:20;;;;;;;;;7.33;7.33;;;;;23.56;64.50;98702.38;4905557;28;107864;-85
2023/07/14 08:55:18;;;;;;;;;5.67;5.67;;;;;23.94;58.67;98698.88;4941713;28;102020;-84
2023/07/14 08:57:50;;;;;;;;;5.00;4.00;;;;;24.17;59.10;98697.38;4942198;28;101801;-83
2023/07/14 09:00:27;;;;;;;;;2.67;2.67;;;;;24.27;60.73;98685.44;4930714;28;102509;-83
2023/07/14 09:03:15;;;;;;;;;5.00;4.00;;;;;24.59;59.48;98701.44;4949026;28;102343;-83
2023/07/14 09:05:51;;;;;;;;;5.67;5.67;;;;;24.19;55.89;98697.06;4949488;28;101456;-84
2023/07/14 09:08:18;;;;;;;;;3.33;3.00;;;;;24.48;54.66;98692.44;4946365;28;101859;-83
2023/07/14 09:14:35;;;;;;;;;4.00;4.00;;;;;24.55;54.36;98692.09;4948874;28;107069;-82
2023/07/14 09:17:27;;;;;;;;;3.00;3.00;;;;;24.61;50.97;98691.78;4949513;28;101615;-83
2023/07/14 09:20:29;;;;;;;;;7.00;7.00;;;;;24.31;52.00;98680.97;4947208;28;101661;-83
2023/07/14 09:23:05;;;;;;;;;6.00;5.33;;;;;24.41;53.45;98701.03;4919704;28;103662;-83
2023/07/14 09:25:52;;;;;;;;;4.00;4.00;;;;;24.62;49.53;98689.84;4949993;28;103716;-84
2023/07/14 09:28:51;;;;;;;;;4.00;4.00;;;;;24.39;52.61;98645.25;4945772;28;102487;-85
2023/07/14 09:31:39;;;;;;;;;6.33;6.33;;;;;24.36;52.08;98694.75;4895439;28;101548;-83
2023/07/14 09:34:37;;;;;;;;;5.00;5.00;;;;;24.54;54.37;98688.50;4945992;28;101665;-81
2023/07/14 09:37:19;;;;;;;;;5.00;5.00;;;;;24.40;53.12;98674.53;4947943;28;107898;-83
2023/07/14 09:39:51;;;;;;;;;4.67;4.67;;;;;24.82;54.84;98689.63;4948006;28;102026;-85
2023/07/14 09:42:35;;;;;;;;;3.67;3.67;;;;;24.91;52.91;98673.25;4947568;28;101468;-84
2023/07/14 09:45:14;;;;;;;;;5.00;5.00;;;;;25.17;53.72;98682.97;4947823;28;101825;-83
2023/07/14 09:47:44;;;;;;;;;3.67;3.67;;;;;25.40;52.72;98692.38;4927827;28;109159;-82
2023/07/14 09:50:17;;;;;;;;;3.00;3.00;;;;;25.39;47.78;98677.72;4942565;28;102937;-82
2023/07/14 09:52:55;;;;;;;;;6.00;5.00;;;;;25.07;50.75;98683.06;4942722;28;101666;-84
2023/07/14 09:55:24;;;;;;;;;3.67;3.67;;;;;25.17;46.38;98671.88;4926127;28;101978;-83
2023/07/14 09:57:54;;;;;;;;;3.67;3.67;;;;;25.41;46.21;98669.09;4946706;28;103573;-83
2023/07/14 10:00:41;;;;;;;;;5.67;5.00;;;;;24.69;45.35;98669.00;4942275;28;102018;-84
2023/07/14 10:03:15;;;;;;;;;4.67;3.67;;;;;25.01;47.30;98664.84;4948456;28;101612;-84
2023/07/14 10:06:02;;;;;;;;;4.00;4.00;;;;;25.29;48.66;98672.28;4949661;28;101584;-83
2023/07/14 10:08:44;;;;;;;;;2.00;2.00;;;;;25.45;47.89;98657.13;4928334;28;108053;-84
2023/07/14 10:11:14;;;;;;;;;3.67;3.67;;;;;25.56;50.41;98667.00;4947882;28;102023;-84
2023/07/14 10:13:49;;;;;;;;;7.00;6.33;;;;;25.48;49.38;98656.56;4943077;28;104451;-86
2023/07/14 10:16:17;;;;;;;;;2.00;2.00;;;;;25.60;49.43;98665.28;4947702;28;101876;-85
2023/07/14 10:19:03;;;;;;;;;3.00;3.00;;;;;25.61;51.03;98638.41;4948103;28;103795;-89
2023/07/14 10:21:33;;;;;;;;;2.00;2.00;;;;;25.95;50.79;98665.91;4916234;28;101598;-87
2023/07/14 10:24:04;;;;;;;;;2.00;1.67;;;;;26.06;47.08;98656.31;4921261;28;101529;-88
2023/07/14 10:26:39;;;;;;;;;2.00;2.00;;;;;26.12;44.42;98655.09;4930921;28;102032;-86
2023/07/14 10:29:14;;;;;;;;;1.67;1.67;;;;;26.13;47.08;98642.88;4946837;28;103336;-87
2023/07/14 10:31:44;;;;;;;;;5.25;5.25;;;;;25.47;44.84;98629.97;4944968;28;101990;-87
2023/07/14 10:34:14;;;;;;;;;3.33;3.33;;;;;25.71;46.75;98655.69;4952532;28;101668;-87
2023/07/14 10:36:43;;;;;;;;;3.00;3.00;;;;;25.85;46.97;98650.25;4936547;28;101694;-89
2023/07/14 10:39:32;;;;;;;;;3.00;3.00;;;;;25.99;45.91;98642.00;4944890;28;103339;-80
2023/07/14 10:41:59;;;;;;;;;3.33;3.00;;;;;26.05;44.63;98654.66;4948104;28;101749;-86
2023/07/14 10:44:37;;;;;;;;;3.00;3.00;;;;;26.16;44.49;98651.41;4953173;28;102076;-84
2023/07/14 10:47:36;;;;;;;;;2.00;2.00;;;;;26.25;44.78;98648.03;4929425;28;101754;-86
2023/07/14 10:50:19;;;;;;;;;3.00;3.00;;;;;26.22;42.98;98638.34;4946629;28;107951;-83
2023/07/14 10:52:53;;;;;;;;;3.00;2.33;;;;;26.12;43.16;98616.28;4951600;28;101875;-84
2023/07/14 10:55:26;;;;;;;;;2.33;2.33;;;;;26.24;42.19;98633.34;4942585;28;101408;-83
2023/07/14 10:58:10;;;;;;;;;2.00;2.00;;;;;26.11;41.07;98623.00;4947029;28;101853;-86
2023/07/14 11:01:12;;;;;;;;;3.00;2.00;;;;;26.17;41.20;98630.91;4941139;28;107759;-86
2023/07/14 11:04:08;;;;;;;;;2.00;2.00;;;;;26.12;43.12;98610.75;4939523;28;101596;-83
2023/07/14 11:06:36;;;;;;;;;2.67;2.67;;;;;26.21;41.48;98613.72;4943520;28;102925;-81
2023/07/14 11:09:10;;;;;;;;;2.00;2.00;;;;;26.20;43.97;98610.09;4948649;28;101663;-83
2023/07/14 11:11:59;;;;;;;;;3.00;2.00;;;;;26.10;45.58;98635.19;4944656;28;103454;-84
2023/07/14 11:14:44;;;;;;;;;1.00;1.00;;;;;25.75;43.45;98606.91;4946841;28;101653;-86
2023/07/14 11:17:33;;;;;;;;;6.00;6.00;;;;;25.53;47.07;98620.47;4947307;28;101709;-84
2023/07/14 11:20:33;;;;;;;;;4.33;3.67;;;;;25.71;47.34;98625.22;4946161;28;101926;-81
2023/07/14 11:23:32;;;;;;;;;3.00;3.00;;;;;25.63;46.73;98619.53;4908726;28;107802;-82
2023/07/14 11:26:32;;;;;;;;;3.00;2.00;;;;;25.48;47.02;98606.72;4927455;28;104476;-84
2023/07/14 11:29:11;;;;;;;;;2.00;2.00;;;;;25.34;51.82;98619.63;4922289;28;102282;-84
2023/07/14 11:31:59;;;;;;;;;9.33;9.33;;;;;24.69;45.73;98615.66;4929042;28;101659;-87
2023/07/14 11:34:33;;;;;;;;;5.00;5.00;;;;;25.15;48.76;98602.16;4934635;28;106927;-84
2023/07/14 11:37:38;;;;;;;;;5.00;4.00;;;;;25.36;47.99;98619.31;4937187;28;101674;-81
2023/07/14 11:40:19;;;;;;;;;4.33;4.33;;;;;25.54;51.98;98596.41;4932805;28;101583;-84
2023/07/14 11:42:57;;;;;;;;;2.00;2.00;;;;;26.03;50.13;98609.78;4927716;28;101771;-83
2023/07/14 11:45:28;;;;;;;;;2.00;2.00;;;;;26.38;46.63;98598.16;4927503;28;103305;-84
2023/07/14 11:47:58;;;;;;;;;3.00;2.33;;;;;26.39;44.46;98568.47;4930611;28;103288;-82
2023/07/14 11:50:34;;;;;;;;;3.00;2.00;;;;;26.76;47.02;98589.69;4917422;28;101620;-85
2023/07/14 11:53:21;;;;;;;;;1.00;1.00;;;;;26.93;43.96;98581.59;4930710;28;101889;-83